Arnold, Illinois
Current Conditions -  °F | °C
As of 1:55 AM on Friday 19 Dec 2014 (Local Time) from KIJX Reporting Station
Overcast Overcast  
Wind Chill: -1°   Ceiling: 3500
Heat Index: -1°   Visibility: 7mi
Dew Point: -3°   Wind: 0mph
Humidity: 84%   Direction: NA
Pressure: 30.29"   Gusts: NA
Location:  39.7413°N, 90.2138°W
Report Text: KIJX 190755Z AUTO 00000KT 7SM OVC035 M01/M03 A3029 RMK AO2 T10081032
Loading
Personal Weather Stations






























Interactive Weather Map New forecast layout! Learn more

10-Day Weather Forecast

Advertisements
Track Severe Weather on mobile